sensor_id;sensor_type;location;lat;lon;timestamp;P1;durP1;ratioP1;P2;durP2;ratioP2
15858;SDS011;8029;52.202;7.308;2023-01-31T00:00:40;4.83;;;2.10;;
15858;SDS011;8029;52.202;7.308;2023-01-31T00:03:07;5.20;;;1.73;;
15858;SDS011;8029;52.202;7.308;2023-01-31T00:05:33;12.53;;;2.80;;
15858;SDS011;8029;52.202;7.308;2023-01-31T00:07:59;5.75;;;3.25;;
15858;SDS011;8029;52.202;7.308;2023-01-31T00:10:25;6.50;;;3.07;;
15858;SDS011;8029;52.202;7.308;2023-01-31T00:12:51;8.97;;;2.33;;
15858;SDS011;8029;52.202;7.308;2023-01-31T00:15:17;8.13;;;2.70;;
15858;SDS011;8029;52.202;7.308;2023-01-31T00:17:43;8.03;;;3.37;;
15858;SDS011;8029;52.202;7.308;2023-01-31T00:20:10;4.57;;;1.50;;
15858;SDS011;8029;52.202;7.308;2023-01-31T00:22:36;3.83;;;2.20;;
15858;SDS011;8029;52.202;7.308;2023-01-31T00:25:02;13.73;;;3.47;;
15858;SDS011;8029;52.202;7.308;2023-01-31T00:27:29;5.23;;;2.53;;
15858;SDS011;8029;52.202;7.308;2023-01-31T00:29:55;5.63;;;2.40;;
15858;SDS011;8029;52.202;7.308;2023-01-31T00:32:21;8.43;;;2.90;;
15858;SDS011;8029;52.202;7.308;2023-01-31T00:34:49;4.10;;;2.03;;
15858;SDS011;8029;52.202;7.308;2023-01-31T00:37:15;5.60;;;2.07;;
15858;SDS011;8029;52.202;7.308;2023-01-31T00:39:41;6.87;;;2.60;;
15858;SDS011;8029;52.202;7.308;2023-01-31T00:42:07;6.30;;;2.13;;
15858;SDS011;8029;52.202;7.308;2023-01-31T00:44:33;4.07;;;2.10;;
15858;SDS011;8029;52.202;7.308;2023-01-31T00:46:59;3.90;;;1.77;;
15858;SDS011;8029;52.202;7.308;2023-01-31T00:49:25;5.20;;;2.30;;
15858;SDS011;8029;52.202;7.308;2023-01-31T00:51:51;8.30;;;3.40;;
15858;SDS011;8029;52.202;7.308;2023-01-31T00:54:18;8.03;;;2.43;;
15858;SDS011;8029;52.202;7.308;2023-01-31T00:56:44;6.97;;;2.30;;
15858;SDS011;8029;52.202;7.308;2023-01-31T00:59:10;5.03;;;2.07;;
15858;SDS011;8029;52.202;7.308;2023-01-31T01:01:37;3.17;;;1.90;;
15858;SDS011;8029;52.202;7.308;2023-01-31T01:04:03;2.97;;;1.83;;
15858;SDS011;8029;52.202;7.308;2023-01-31T01:06:30;9.97;;;2.83;;
15858;SDS011;8029;52.202;7.308;2023-01-31T01:08:57;4.37;;;1.80;;
15858;SDS011;8029;52.202;7.308;2023-01-31T01:11:27;3.07;;;1.67;;
15858;SDS011;8029;52.202;7.308;2023-01-31T01:13:53;2.83;;;1.97;;
15858;SDS011;8029;52.202;7.308;2023-01-31T01:16:20;4.40;;;1.77;;
15858;SDS011;8029;52.202;7.308;2023-01-31T01:18:46;4.80;;;2.17;;
15858;SDS011;8029;52.202;7.308;2023-01-31T01:21:21;11.20;;;2.50;;
15858;SDS011;8029;52.202;7.308;2023-01-31T01:23:47;6.67;;;2.37;;
15858;SDS011;8029;52.202;7.308;2023-01-31T01:26:14;4.67;;;2.53;;
15858;SDS011;8029;52.202;7.308;2023-01-31T01:28:40;11.20;;;2.70;;
15858;SDS011;8029;52.202;7.308;2023-01-31T01:31:08;10.17;;;2.57;;
15858;SDS011;8029;52.202;7.308;2023-01-31T01:33:34;4.10;;;2.37;;
15858;SDS011;8029;52.202;7.308;2023-01-31T01:36:01;8.47;;;3.37;;
15858;SDS011;8029;52.202;7.308;2023-01-31T01:38:28;17.53;;;2.63;;
15858;SDS011;8029;52.202;7.308;2023-01-31T01:40:54;6.83;;;2.43;;
15858;SDS011;8029;52.202;7.308;2023-01-31T01:43:20;6.43;;;2.50;;
15858;SDS011;8029;52.202;7.308;2023-01-31T01:45:46;5.83;;;2.10;;
15858;SDS011;8029;52.202;7.308;2023-01-31T01:48:14;6.43;;;2.63;;
15858;SDS011;8029;52.202;7.308;2023-01-31T01:50:43;5.17;;;2.43;;
15858;SDS011;8029;52.202;7.308;2023-01-31T01:53:13;18.80;;;2.23;;
15858;SDS011;8029;52.202;7.308;2023-01-31T01:55:47;8.00;;;2.07;;
15858;SDS011;8029;52.202;7.308;2023-01-31T01:58:16;19.80;;;2.23;;
15858;SDS011;8029;52.202;7.308;2023-01-31T02:00:44;6.33;;;2.13;;
15858;SDS011;8029;52.202;7.308;2023-01-31T02:03:11;4.40;;;2.23;;
15858;SDS011;8029;52.202;7.308;2023-01-31T02:05:39;3.30;;;1.90;;
15858;SDS011;8029;52.202;7.308;2023-01-31T02:08:06;5.67;;;2.77;;
15858;SDS011;8029;52.202;7.308;2023-01-31T02:10:34;4.53;;;1.77;;
15858;SDS011;8029;52.202;7.308;2023-01-31T02:13:02;6.50;;;2.73;;
15858;SDS011;8029;52.202;7.308;2023-01-31T02:15:28;15.63;;;2.67;;
15858;SDS011;8029;52.202;7.308;2023-01-31T02:17:54;4.70;;;2.53;;
15858;SDS011;8029;52.202;7.308;2023-01-31T02:46:25;40.10;;;3.30;;
15858;SDS011;8029;52.202;7.308;2023-01-31T02:49:04;6.67;;;2.80;;
15858;SDS011;8029;52.202;7.308;2023-01-31T02:51:33;3.17;;;2.07;;
15858;SDS011;8029;52.202;7.308;2023-01-31T02:54:04;5.87;;;2.47;;
15858;SDS011;8029;52.202;7.308;2023-01-31T02:56:31;5.93;;;2.67;;
15858;SDS011;8029;52.202;7.308;2023-01-31T03:02:00;5.13;;;2.17;;
15858;SDS011;8029;52.202;7.308;2023-01-31T03:04:30;6.07;;;3.00;;
15858;SDS011;8029;52.202;7.308;2023-01-31T03:06:58;7.97;;;2.93;;
15858;SDS011;8029;52.202;7.308;2023-01-31T03:09:29;4.83;;;2.17;;
15858;SDS011;8029;52.202;7.308;2023-01-31T03:15:10;8.07;;;2.43;;
15858;SDS011;8029;52.202;7.308;2023-01-31T03:22:45;5.63;;;2.07;;
15858;SDS011;8029;52.202;7.308;2023-01-31T03:25:13;9.57;;;2.77;;
15858;SDS011;8029;52.202;7.308;2023-01-31T03:27:42;4.53;;;2.53;;
15858;SDS011;8029;52.202;7.308;2023-01-31T03:30:11;7.27;;;2.20;;
15858;SDS011;8029;52.202;7.308;2023-01-31T03:32:41;4.40;;;2.03;;
15858;SDS011;8029;52.202;7.308;2023-01-31T03:35:09;5.03;;;2.40;;
15858;SDS011;8029;52.202;7.308;2023-01-31T03:40:20;5.97;;;2.37;;
15858;SDS011;8029;52.202;7.308;2023-01-31T03:42:57;5.20;;;2.40;;
15858;SDS011;8029;52.202;7.308;2023-01-31T03:47:50;7.47;;;2.13;;
15858;SDS011;8029;52.202;7.308;2023-01-31T03:50:37;7.17;;;2.47;;
15858;SDS011;8029;52.202;7.308;2023-01-31T03:53:12;10.60;;;3.57;;
15858;SDS011;8029;52.202;7.308;2023-01-31T03:55:45;10.60;;;2.57;;
15858;SDS011;8029;52.202;7.308;2023-01-31T03:58:14;2.07;;;1.47;;
15858;SDS011;8029;52.202;7.308;2023-01-31T04:00:44;11.23;;;3.43;;
15858;SDS011;8029;52.202;7.308;2023-01-31T04:03:19;6.03;;;2.40;;
15858;SDS011;8029;52.202;7.308;2023-01-31T04:05:49;9.67;;;2.97;;
15858;SDS011;8029;52.202;7.308;2023-01-31T04:08:15;3.87;;;2.23;;
15858;SDS011;8029;52.202;7.308;2023-01-31T04:10:42;3.93;;;1.83;;
15858;SDS011;8029;52.202;7.308;2023-01-31T04:13:08;5.27;;;2.40;;
15858;SDS011;8029;52.202;7.308;2023-01-31T04:15:34;4.67;;;2.50;;
15858;SDS011;8029;52.202;7.308;2023-01-31T04:18:00;7.70;;;2.83;;
15858;SDS011;8029;52.202;7.308;2023-01-31T04:20:26;3.00;;;1.90;;
15858;SDS011;8029;52.202;7.308;2023-01-31T04:22:52;8.17;;;2.80;;
15858;SDS011;8029;52.202;7.308;2023-01-31T04:25:18;3.00;;;1.70;;
15858;SDS011;8029;52.202;7.308;2023-01-31T04:27:44;5.97;;;2.47;;
15858;SDS011;8029;52.202;7.308;2023-01-31T04:30:10;9.60;;;2.87;;
15858;SDS011;8029;52.202;7.308;2023-01-31T04:32:36;5.00;;;3.00;;
15858;SDS011;8029;52.202;7.308;2023-01-31T04:35:02;5.60;;;1.93;;
15858;SDS011;8029;52.202;7.308;2023-01-31T04:37:28;7.90;;;3.00;;
15858;SDS011;8029;52.202;7.308;2023-01-31T04:39:54;3.63;;;2.03;;
15858;SDS011;8029;52.202;7.308;2023-01-31T04:42:20;3.03;;;2.03;;
15858;SDS011;8029;52.202;7.308;2023-01-31T04:44:46;20.13;;;2.90;;
15858;SDS011;8029;52.202;7.308;2023-01-31T04:47:12;13.43;;;3.37;;
15858;SDS011;8029;52.202;7.308;2023-01-31T04:49:38;5.50;;;2.33;;
15858;SDS011;8029;52.202;7.308;2023-01-31T04:52:04;2.90;;;1.95;;
15858;SDS011;8029;52.202;7.308;2023-01-31T04:54:30;8.17;;;3.07;;
15858;SDS011;8029;52.202;7.308;2023-01-31T04:56:56;4.50;;;2.23;;
15858;SDS011;8029;52.202;7.308;2023-01-31T04:59:22;3.95;;;2.25;;
15858;SDS011;8029;52.202;7.308;2023-01-31T05:01:48;8.63;;;2.63;;
15858;SDS011;8029;52.202;7.308;2023-01-31T05:04:14;4.07;;;2.55;;
15858;SDS011;8029;52.202;7.308;2023-01-31T05:06:40;5.70;;;2.40;;
15858;SDS011;8029;52.202;7.308;2023-01-31T05:09:06;15.75;;;2.83;;
15858;SDS011;8029;52.202;7.308;2023-01-31T05:11:32;5.60;;;2.93;;
15858;SDS011;8029;52.202;7.308;2023-01-31T05:13:58;4.13;;;2.40;;
15858;SDS011;8029;52.202;7.308;2023-01-31T05:16:24;4.23;;;3.17;;
15858;SDS011;8029;52.202;7.308;2023-01-31T05:18:50;12.17;;;3.63;;
15858;SDS011;8029;52.202;7.308;2023-01-31T05:21:16;4.50;;;2.67;;
15858;SDS011;8029;52.202;7.308;2023-01-31T05:23:42;6.20;;;2.57;;
15858;SDS011;8029;52.202;7.308;2023-01-31T05:26:08;5.72;;;2.60;;
15858;SDS011;8029;52.202;7.308;2023-01-31T05:28:34;6.63;;;3.03;;
15858;SDS011;8029;52.202;7.308;2023-01-31T05:31:01;4.03;;;2.90;;
15858;SDS011;8029;52.202;7.308;2023-01-31T05:33:27;3.57;;;2.47;;
15858;SDS011;8029;52.202;7.308;2023-01-31T05:35:55;10.05;;;3.20;;
15858;SDS011;8029;52.202;7.308;2023-01-31T05:38:21;7.05;;;3.95;;
15858;SDS011;8029;52.202;7.308;2023-01-31T05:40:48;5.10;;;3.10;;
15858;SDS011;8029;52.202;7.308;2023-01-31T05:43:14;11.15;;;4.13;;
15858;SDS011;8029;52.202;7.308;2023-01-31T05:45:40;6.03;;;2.83;;
15858;SDS011;8029;52.202;7.308;2023-01-31T05:48:06;4.55;;;2.92;;
15858;SDS011;8029;52.202;7.308;2023-01-31T05:50:32;5.00;;;3.20;;
15858;SDS011;8029;52.202;7.308;2023-01-31T05:52:58;10.02;;;4.47;;
15858;SDS011;8029;52.202;7.308;2023-01-31T05:55:25;14.35;;;3.95;;
15858;SDS011;8029;52.202;7.308;2023-01-31T05:57:52;4.90;;;3.10;;
15858;SDS011;8029;52.202;7.308;2023-01-31T06:00:18;9.27;;;4.28;;
15858;SDS011;8029;52.202;7.308;2023-01-31T06:02:45;8.02;;;3.30;;
15858;SDS011;8029;52.202;7.308;2023-01-31T06:05:13;9.85;;;3.95;;
15858;SDS011;8029;52.202;7.308;2023-01-31T06:07:39;8.73;;;3.57;;
15858;SDS011;8029;52.202;7.308;2023-01-31T06:10:05;13.50;;;3.83;;
15858;SDS011;8029;52.202;7.308;2023-01-31T06:12:31;4.07;;;3.13;;
15858;SDS011;8029;52.202;7.308;2023-01-31T06:14:57;8.90;;;3.97;;
15858;SDS011;8029;52.202;7.308;2023-01-31T06:17:23;7.47;;;3.30;;
15858;SDS011;8029;52.202;7.308;2023-01-31T06:19:49;4.10;;;3.25;;
15858;SDS011;8029;52.202;7.308;2023-01-31T06:22:16;3.35;;;2.78;;
15858;SDS011;8029;52.202;7.308;2023-01-31T06:24:42;5.50;;;3.92;;
15858;SDS011;8029;52.202;7.308;2023-01-31T06:27:07;8.20;;;4.53;;
15858;SDS011;8029;52.202;7.308;2023-01-31T06:29:33;13.18;;;4.25;;
15858;SDS011;8029;52.202;7.308;2023-01-31T06:31:59;6.28;;;3.78;;
15858;SDS011;8029;52.202;7.308;2023-01-31T06:34:25;8.65;;;4.68;;
15858;SDS011;8029;52.202;7.308;2023-01-31T06:36:51;7.07;;;4.55;;
15858;SDS011;8029;52.202;7.308;2023-01-31T06:39:17;5.40;;;4.00;;
15858;SDS011;8029;52.202;7.308;2023-01-31T06:41:43;6.45;;;3.90;;
15858;SDS011;8029;52.202;7.308;2023-01-31T06:44:09;10.73;;;4.30;;
15858;SDS011;8029;52.202;7.308;2023-01-31T06:46:35;7.28;;;4.55;;
15858;SDS011;8029;52.202;7.308;2023-01-31T06:49:02;9.77;;;4.93;;
15858;SDS011;8029;52.202;7.308;2023-01-31T06:51:29;23.52;;;4.75;;
15858;SDS011;8029;52.202;7.308;2023-01-31T06:53:55;9.48;;;4.03;;
15858;SDS011;8029;52.202;7.308;2023-01-31T06:56:21;5.30;;;4.05;;
15858;SDS011;8029;52.202;7.308;2023-01-31T06:58:47;7.50;;;4.13;;
15858;SDS011;8029;52.202;7.308;2023-01-31T07:01:13;9.82;;;4.57;;
15858;SDS011;8029;52.202;7.308;2023-01-31T07:03:40;11.10;;;5.30;;
15858;SDS011;8029;52.202;7.308;2023-01-31T07:06:06;6.57;;;3.55;;
15858;SDS011;8029;52.202;7.308;2023-01-31T07:08:33;14.23;;;4.45;;
15858;SDS011;8029;52.202;7.308;2023-01-31T07:10:59;9.02;;;5.35;;
15858;SDS011;8029;52.202;7.308;2023-01-31T07:13:28;6.15;;;4.55;;
15858;SDS011;8029;52.202;7.308;2023-01-31T07:15:55;12.93;;;5.32;;
15858;SDS011;8029;52.202;7.308;2023-01-31T07:18:20;10.07;;;5.13;;
15858;SDS011;8029;52.202;7.308;2023-01-31T07:20:46;69.53;;;5.68;;
15858;SDS011;8029;52.202;7.308;2023-01-31T07:23:12;6.03;;;5.32;;
15858;SDS011;8029;52.202;7.308;2023-01-31T07:25:38;9.27;;;5.68;;
15858;SDS011;8029;52.202;7.308;2023-01-31T07:28:04;10.85;;;5.43;;
15858;SDS011;8029;52.202;7.308;2023-01-31T07:30:30;9.30;;;5.63;;
15858;SDS011;8029;52.202;7.308;2023-01-31T07:32:56;20.10;;;5.30;;
15858;SDS011;8029;52.202;7.308;2023-01-31T07:35:22;14.90;;;6.10;;
15858;SDS011;8029;52.202;7.308;2023-01-31T07:37:51;7.82;;;5.07;;
15858;SDS011;8029;52.202;7.308;2023-01-31T07:40:18;8.88;;;5.45;;
15858;SDS011;8029;52.202;7.308;2023-01-31T07:42:44;17.73;;;6.13;;
15858;SDS011;8029;52.202;7.308;2023-01-31T07:45:12;12.60;;;5.03;;
15858;SDS011;8029;52.202;7.308;2023-01-31T07:47:38;9.07;;;4.90;;
15858;SDS011;8029;52.202;7.308;2023-01-31T07:50:04;9.02;;;4.35;;
15858;SDS011;8029;52.202;7.308;2023-01-31T07:52:30;17.35;;;6.07;;
15858;SDS011;8029;52.202;7.308;2023-01-31T07:54:57;8.07;;;5.40;;
15858;SDS011;8029;52.202;7.308;2023-01-31T07:57:23;8.57;;;4.88;;
15858;SDS011;8029;52.202;7.308;2023-01-31T07:59:49;7.88;;;6.35;;
15858;SDS011;8029;52.202;7.308;2023-01-31T08:02:16;14.23;;;6.15;;
15858;SDS011;8029;52.202;7.308;2023-01-31T08:05:00;8.60;;;5.07;;
15858;SDS011;8029;52.202;7.308;2023-01-31T08:07:26;17.02;;;6.65;;
15858;SDS011;8029;52.202;7.308;2023-01-31T08:09:53;6.65;;;4.80;;
15858;SDS011;8029;52.202;7.308;2023-01-31T08:12:19;11.00;;;5.77;;
15858;SDS011;8029;52.202;7.308;2023-01-31T08:14:45;13.20;;;6.03;;
15858;SDS011;8029;52.202;7.308;2023-01-31T08:17:11;10.70;;;5.07;;
15858;SDS011;8029;52.202;7.308;2023-01-31T08:19:37;9.43;;;5.57;;
15858;SDS011;8029;52.202;7.308;2023-01-31T08:22:04;11.80;;;5.50;;
15858;SDS011;8029;52.202;7.308;2023-01-31T08:24:30;11.87;;;5.77;;
15858;SDS011;8029;52.202;7.308;2023-01-31T08:26:56;14.63;;;6.23;;
15858;SDS011;8029;52.202;7.308;2023-01-31T08:29:22;11.82;;;5.93;;
15858;SDS011;8029;52.202;7.308;2023-01-31T08:31:49;9.93;;;6.78;;
15858;SDS011;8029;52.202;7.308;2023-01-31T08:34:15;15.15;;;5.63;;
15858;SDS011;8029;52.202;7.308;2023-01-31T08:36:41;11.70;;;5.30;;
15858;SDS011;8029;52.202;7.308;2023-01-31T08:39:07;10.45;;;6.35;;
15858;SDS011;8029;52.202;7.308;2023-01-31T08:41:33;15.25;;;5.93;;
15858;SDS011;8029;52.202;7.308;2023-01-31T08:44:00;11.23;;;6.25;;
15858;SDS011;8029;52.202;7.308;2023-01-31T08:46:29;10.57;;;5.18;;
15858;SDS011;8029;52.202;7.308;2023-01-31T08:48:55;14.15;;;6.07;;
15858;SDS011;8029;52.202;7.308;2023-01-31T08:51:22;7.88;;;5.45;;
15858;SDS011;8029;52.202;7.308;2023-01-31T08:53:48;13.88;;;6.18;;
15858;SDS011;8029;52.202;7.308;2023-01-31T08:56:14;8.88;;;6.03;;
15858;SDS011;8029;52.202;7.308;2023-01-31T08:58:41;10.90;;;5.40;;
15858;SDS011;8029;52.202;7.308;2023-01-31T09:01:09;9.85;;;5.75;;
15858;SDS011;8029;52.202;7.308;2023-01-31T09:03:35;10.30;;;5.38;;
15858;SDS011;8029;52.202;7.308;2023-01-31T09:06:03;9.53;;;6.20;;
15858;SDS011;8029;52.202;7.308;2023-01-31T09:08:29;5.70;;;4.55;;
15858;SDS011;8029;52.202;7.308;2023-01-31T09:10:56;10.20;;;5.97;;
15858;SDS011;8029;52.202;7.308;2023-01-31T09:13:24;10.70;;;4.88;;
15858;SDS011;8029;52.202;7.308;2023-01-31T09:15:57;7.60;;;5.03;;
15858;SDS011;8029;52.202;7.308;2023-01-31T09:18:23;6.10;;;4.53;;
15858;SDS011;8029;52.202;7.308;2023-01-31T09:20:49;8.32;;;5.05;;
15858;SDS011;8029;52.202;7.308;2023-01-31T09:23:15;16.77;;;5.40;;
15858;SDS011;8029;52.202;7.308;2023-01-31T09:25:41;7.80;;;4.05;;
15858;SDS011;8029;52.202;7.308;2023-01-31T09:28:07;6.28;;;4.45;;
15858;SDS011;8029;52.202;7.308;2023-01-31T09:30:33;6.70;;;4.38;;
15858;SDS011;8029;52.202;7.308;2023-01-31T09:32:59;17.85;;;6.38;;
15858;SDS011;8029;52.202;7.308;2023-01-31T09:35:25;5.53;;;4.25;;
15858;SDS011;8029;52.202;7.308;2023-01-31T09:37:52;5.32;;;3.60;;
15858;SDS011;8029;52.202;7.308;2023-01-31T09:40:21;8.82;;;4.68;;
15858;SDS011;8029;52.202;7.308;2023-01-31T09:42:49;10.40;;;4.70;;
15858;SDS011;8029;52.202;7.308;2023-01-31T09:45:22;16.73;;;5.05;;
15858;SDS011;8029;52.202;7.308;2023-01-31T09:47:51;7.97;;;4.60;;
15858;SDS011;8029;52.202;7.308;2023-01-31T09:50:41;18.80;;;4.90;;
15858;SDS011;8029;52.202;7.308;2023-01-31T09:53:04;6.45;;;4.03;;
15858;SDS011;8029;52.202;7.308;2023-01-31T09:55:41;8.80;;;3.47;;
15858;SDS011;8029;52.202;7.308;2023-01-31T10:00:49;7.47;;;4.72;;
15858;SDS011;8029;52.202;7.308;2023-01-31T10:13:05;5.63;;;3.75;;
15858;SDS011;8029;52.202;7.308;2023-01-31T10:18:07;6.32;;;3.97;;
15858;SDS011;8029;52.202;7.308;2023-01-31T10:20:43;6.85;;;4.93;;
15858;SDS011;8029;52.202;7.308;2023-01-31T10:23:34;5.63;;;4.03;;
15858;SDS011;8029;52.202;7.308;2023-01-31T10:25:59;6.80;;;4.15;;
15858;SDS011;8029;52.202;7.308;2023-01-31T10:28:33;6.07;;;3.78;;
15858;SDS011;8029;52.202;7.308;2023-01-31T10:36:19;6.80;;;4.20;;
15858;SDS011;8029;52.202;7.308;2023-01-31T10:38:51;7.35;;;3.83;;
15858;SDS011;8029;52.202;7.308;2023-01-31T10:41:21;7.50;;;4.65;;
15858;SDS011;8029;52.202;7.308;2023-01-31T10:43:52;8.25;;;5.38;;
15858;SDS011;8029;52.202;7.308;2023-01-31T10:46:22;5.25;;;3.17;;
15858;SDS011;8029;52.202;7.308;2023-01-31T10:48:48;8.00;;;4.03;;
15858;SDS011;8029;52.202;7.308;2023-01-31T10:58:58;6.82;;;4.60;;
15858;SDS011;8029;52.202;7.308;2023-01-31T11:01:25;8.82;;;4.00;;
15858;SDS011;8029;52.202;7.308;2023-01-31T11:03:53;9.52;;;4.80;;
15858;SDS011;8029;52.202;7.308;2023-01-31T11:06:19;9.75;;;4.93;;
15858;SDS011;8029;52.202;7.308;2023-01-31T11:08:58;5.72;;;4.03;;
15858;SDS011;8029;52.202;7.308;2023-01-31T11:11:27;9.70;;;4.47;;
15858;SDS011;8029;52.202;7.308;2023-01-31T11:14:03;4.40;;;3.63;;
15858;SDS011;8029;52.202;7.308;2023-01-31T11:16:30;4.60;;;3.47;;
15858;SDS011;8029;52.202;7.308;2023-01-31T11:18:58;6.60;;;3.95;;
15858;SDS011;8029;52.202;7.308;2023-01-31T11:21:26;8.00;;;3.88;;
15858;SDS011;8029;52.202;7.308;2023-01-31T11:23:55;7.00;;;4.15;;
15858;SDS011;8029;52.202;7.308;2023-01-31T11:26:24;6.28;;;3.83;;
15858;SDS011;8029;52.202;7.308;2023-01-31T11:28:51;4.50;;;3.55;;
15858;SDS011;8029;52.202;7.308;2023-01-31T11:31:18;6.07;;;3.75;;
15858;SDS011;8029;52.202;7.308;2023-01-31T11:33:55;4.65;;;3.05;;
15858;SDS011;8029;52.202;7.308;2023-01-31T11:36:22;7.28;;;4.15;;
15858;SDS011;8029;52.202;7.308;2023-01-31T11:38:51;4.45;;;3.25;;
15858;SDS011;8029;52.202;7.308;2023-01-31T11:44:15;5.03;;;3.60;;
15858;SDS011;8029;52.202;7.308;2023-01-31T11:46:41;2.90;;;2.53;;
15858;SDS011;8029;52.202;7.308;2023-01-31T11:49:11;6.30;;;4.20;;
15858;SDS011;8029;52.202;7.308;2023-01-31T11:51:38;4.28;;;3.28;;
15858;SDS011;8029;52.202;7.308;2023-01-31T11:54:05;10.18;;;4.60;;
15858;SDS011;8029;52.202;7.308;2023-01-31T11:56:33;5.30;;;3.88;;
15858;SDS011;8029;52.202;7.308;2023-01-31T11:59:01;4.97;;;3.72;;
15858;SDS011;8029;52.202;7.308;2023-01-31T12:01:29;10.25;;;4.13;;
15858;SDS011;8029;52.202;7.308;2023-01-31T12:03:57;5.05;;;3.55;;
15858;SDS011;8029;52.202;7.308;2023-01-31T12:06:31;7.38;;;3.92;;
15858;SDS011;8029;52.202;7.308;2023-01-31T12:08:58;8.48;;;3.53;;
15858;SDS011;8029;52.202;7.308;2023-01-31T12:11:32;5.47;;;3.45;;
15858;SDS011;8029;52.202;7.308;2023-01-31T12:16:30;7.80;;;4.50;;
15858;SDS011;8029;52.202;7.308;2023-01-31T12:26:38;11.52;;;4.15;;
15858;SDS011;8029;52.202;7.308;2023-01-31T12:29:15;6.78;;;4.05;;
15858;SDS011;8029;52.202;7.308;2023-01-31T12:57:28;4.38;;;3.53;;
15858;SDS011;8029;52.202;7.308;2023-01-31T12:59:55;5.30;;;3.38;;
15858;SDS011;8029;52.202;7.308;2023-01-31T13:02:41;5.50;;;4.40;;
15858;SDS011;8029;52.202;7.308;2023-01-31T13:07:52;2.90;;;2.38;;
15858;SDS011;8029;52.202;7.308;2023-01-31T13:10:27;5.72;;;3.38;;
15858;SDS011;8029;52.202;7.308;2023-01-31T13:12:53;9.70;;;4.05;;
15858;SDS011;8029;52.202;7.308;2023-01-31T13:17:45;7.00;;;3.53;;
15858;SDS011;8029;52.202;7.308;2023-01-31T13:22:54;4.18;;;3.72;;
15858;SDS011;8029;52.202;7.308;2023-01-31T13:25:21;5.55;;;3.65;;
15858;SDS011;8029;52.202;7.308;2023-01-31T13:28:01;6.85;;;4.50;;
15858;SDS011;8029;52.202;7.308;2023-01-31T13:32:57;6.40;;;3.58;;
15858;SDS011;8029;52.202;7.308;2023-01-31T13:35:25;5.05;;;3.72;;
15858;SDS011;8029;52.202;7.308;2023-01-31T13:37:54;4.80;;;3.28;;
15858;SDS011;8029;52.202;7.308;2023-01-31T13:40:24;6.70;;;4.03;;
15858;SDS011;8029;52.202;7.308;2023-01-31T13:42:50;3.40;;;3.10;;
15858;SDS011;8029;52.202;7.308;2023-01-31T13:45:25;4.72;;;3.58;;
15858;SDS011;8029;52.202;7.308;2023-01-31T13:47:57;3.17;;;2.90;;
15858;SDS011;8029;52.202;7.308;2023-01-31T13:50:33;4.88;;;3.97;;
15858;SDS011;8029;52.202;7.308;2023-01-31T13:53:01;2.70;;;2.50;;
15858;SDS011;8029;52.202;7.308;2023-01-31T13:55:35;3.10;;;2.78;;
15858;SDS011;8029;52.202;7.308;2023-01-31T13:58:03;6.38;;;3.25;;
15858;SDS011;8029;52.202;7.308;2023-01-31T14:02:59;7.60;;;3.75;;
15858;SDS011;8029;52.202;7.308;2023-01-31T14:10:51;4.43;;;3.38;;
15858;SDS011;8029;52.202;7.308;2023-01-31T14:15:58;4.10;;;3.28;;
15858;SDS011;8029;52.202;7.308;2023-01-31T14:18:34;20.13;;;3.50;;
15858;SDS011;8029;52.202;7.308;2023-01-31T14:23:53;6.13;;;3.13;;
15858;SDS011;8029;52.202;7.308;2023-01-31T14:29:07;6.45;;;3.35;;
15858;SDS011;8029;52.202;7.308;2023-01-31T14:31:34;4.85;;;2.75;;
15858;SDS011;8029;52.202;7.308;2023-01-31T14:34:01;8.38;;;2.97;;
15858;SDS011;8029;52.202;7.308;2023-01-31T14:49:26;5.85;;;2.42;;
15858;SDS011;8029;52.202;7.308;2023-01-31T14:54:44;4.22;;;2.58;;
15858;SDS011;8029;52.202;7.308;2023-01-31T15:04:55;6.03;;;2.22;;
15858;SDS011;8029;52.202;7.308;2023-01-31T15:07:22;2.45;;;2.25;;
15858;SDS011;8029;52.202;7.308;2023-01-31T15:09:48;3.40;;;1.98;;
15858;SDS011;8029;52.202;7.308;2023-01-31T15:14:59;2.85;;;2.17;;
15858;SDS011;8029;52.202;7.308;2023-01-31T15:17:28;3.55;;;2.70;;
15858;SDS011;8029;52.202;7.308;2023-01-31T15:19:56;4.85;;;3.15;;
15858;SDS011;8029;52.202;7.308;2023-01-31T15:22:23;4.88;;;3.00;;
15858;SDS011;8029;52.202;7.308;2023-01-31T15:24:51;2.63;;;2.17;;
15858;SDS011;8029;52.202;7.308;2023-01-31T15:27:22;2.65;;;2.00;;
15858;SDS011;8029;52.202;7.308;2023-01-31T15:32:25;2.60;;;2.28;;
15858;SDS011;8029;52.202;7.308;2023-01-31T15:34:55;3.30;;;2.55;;
15858;SDS011;8029;52.202;7.308;2023-01-31T15:37:33;2.70;;;2.13;;
15858;SDS011;8029;52.202;7.308;2023-01-31T15:40:04;3.47;;;2.42;;
15858;SDS011;8029;52.202;7.308;2023-01-31T15:42:31;4.03;;;2.20;;
15858;SDS011;8029;52.202;7.308;2023-01-31T15:47:43;3.63;;;2.00;;
15858;SDS011;8029;52.202;7.308;2023-01-31T15:50:19;4.78;;;3.13;;
15858;SDS011;8029;52.202;7.308;2023-01-31T15:52:45;6.40;;;2.65;;
15858;SDS011;8029;52.202;7.308;2023-01-31T15:55:12;5.32;;;2.85;;
15858;SDS011;8029;52.202;7.308;2023-01-31T15:57:49;3.65;;;2.92;;
15858;SDS011;8029;52.202;7.308;2023-01-31T16:00:20;2.08;;;1.58;;
15858;SDS011;8029;52.202;7.308;2023-01-31T16:02:46;6.38;;;3.25;;
15858;SDS011;8029;52.202;7.308;2023-01-31T16:05:18;3.13;;;2.15;;
15858;SDS011;8029;52.202;7.308;2023-01-31T16:07:45;3.55;;;2.25;;
15858;SDS011;8029;52.202;7.308;2023-01-31T16:10:12;3.75;;;1.98;;
15858;SDS011;8029;52.202;7.308;2023-01-31T16:12:40;2.85;;;2.00;;
15858;SDS011;8029;52.202;7.308;2023-01-31T16:15:07;4.63;;;2.45;;
15858;SDS011;8029;52.202;7.308;2023-01-31T16:17:38;2.42;;;1.83;;
15858;SDS011;8029;52.202;7.308;2023-01-31T16:20:05;4.75;;;3.22;;
15858;SDS011;8029;52.202;7.308;2023-01-31T16:22:31;3.45;;;2.20;;
15858;SDS011;8029;52.202;7.308;2023-01-31T16:24:58;4.25;;;2.45;;
15858;SDS011;8029;52.202;7.308;2023-01-31T16:27:25;5.53;;;2.80;;
15858;SDS011;8029;52.202;7.308;2023-01-31T16:29:53;5.28;;;2.50;;
15858;SDS011;8029;52.202;7.308;2023-01-31T16:32:27;3.47;;;2.20;;
15858;SDS011;8029;52.202;7.308;2023-01-31T16:35:01;2.22;;;1.42;;
15858;SDS011;8029;52.202;7.308;2023-01-31T16:40:04;4.07;;;2.08;;
15858;SDS011;8029;52.202;7.308;2023-01-31T16:42:32;7.43;;;3.83;;
15858;SDS011;8029;52.202;7.308;2023-01-31T16:45:00;8.95;;;2.13;;
15858;SDS011;8029;52.202;7.308;2023-01-31T16:47:44;6.30;;;2.03;;
15858;SDS011;8029;52.202;7.308;2023-01-31T16:52:44;3.20;;;1.92;;
15858;SDS011;8029;52.202;7.308;2023-01-31T16:55:11;3.78;;;2.13;;
15858;SDS011;8029;52.202;7.308;2023-01-31T16:57:38;6.03;;;2.83;;
15858;SDS011;8029;52.202;7.308;2023-01-31T17:00:05;7.40;;;2.85;;
15858;SDS011;8029;52.202;7.308;2023-01-31T17:02:32;4.03;;;2.40;;
15858;SDS011;8029;52.202;7.308;2023-01-31T17:05:16;3.95;;;2.42;;
15858;SDS011;8029;52.202;7.308;2023-01-31T17:07:46;5.88;;;1.90;;
15858;SDS011;8029;52.202;7.308;2023-01-31T17:10:18;6.75;;;2.20;;
15858;SDS011;8029;52.202;7.308;2023-01-31T17:12:46;3.72;;;1.90;;
15858;SDS011;8029;52.202;7.308;2023-01-31T17:15:13;6.80;;;1.92;;
15858;SDS011;8029;52.202;7.308;2023-01-31T17:17:39;3.95;;;2.45;;
15858;SDS011;8029;52.202;7.308;2023-01-31T17:20:05;3.95;;;1.83;;
15858;SDS011;8029;52.202;7.308;2023-01-31T17:22:31;3.53;;;1.75;;
15858;SDS011;8029;52.202;7.308;2023-01-31T17:24:57;5.35;;;2.53;;
15858;SDS011;8029;52.202;7.308;2023-01-31T17:27:23;5.82;;;2.67;;
15858;SDS011;8029;52.202;7.308;2023-01-31T17:29:49;3.85;;;2.17;;
15858;SDS011;8029;52.202;7.308;2023-01-31T17:32:17;2.88;;;1.98;;
15858;SDS011;8029;52.202;7.308;2023-01-31T17:34:44;2.65;;;1.55;;
15858;SDS011;8029;52.202;7.308;2023-01-31T17:37:12;6.00;;;2.40;;
15858;SDS011;8029;52.202;7.308;2023-01-31T17:39:39;3.13;;;1.75;;
15858;SDS011;8029;52.202;7.308;2023-01-31T17:42:06;11.90;;;2.90;;
15858;SDS011;8029;52.202;7.308;2023-01-31T17:44:36;5.13;;;2.42;;
15858;SDS011;8029;52.202;7.308;2023-01-31T17:47:02;2.08;;;1.50;;
15858;SDS011;8029;52.202;7.308;2023-01-31T17:49:28;4.60;;;1.60;;
15858;SDS011;8029;52.202;7.308;2023-01-31T17:51:54;9.05;;;5.38;;
15858;SDS011;8029;52.202;7.308;2023-01-31T17:54:21;4.93;;;2.30;;